createdAt,value
2023-03-12T00:00:11.682Z,3.78
2023-03-12T00:03:15.177Z,5.95
2023-03-12T00:06:19.916Z,4.15
2023-03-12T00:09:24.639Z,5.30
2023-03-12T00:12:27.519Z,7.65
2023-03-12T00:15:30.618Z,4.95
2023-03-12T00:18:33.708Z,6.07
2023-03-12T00:21:37.205Z,5.70
2023-03-12T00:24:40.192Z,7.47
2023-03-12T00:27:44.199Z,6.15
2023-03-12T00:30:47.504Z,7.07
2023-03-12T00:33:50.785Z,8.00
2023-03-12T00:36:53.888Z,5.40
2023-03-12T00:39:57.067Z,5.93
2023-03-12T00:43:00.053Z,6.00
2023-03-12T00:46:03.445Z,7.97
2023-03-12T00:49:06.755Z,5.60
2023-03-12T00:52:10.158Z,5.38
2023-03-12T00:55:13.028Z,6.07
2023-03-12T00:58:16.220Z,5.93
2023-03-12T01:01:20.154Z,5.68
2023-03-12T01:04:23.721Z,6.97
2023-03-12T01:07:26.847Z,4.75
2023-03-12T01:10:32.068Z,4.43
2023-03-12T01:13:35.057Z,6.38
2023-03-12T01:16:38.221Z,8.90
2023-03-12T01:19:41.547Z,4.63
2023-03-12T01:22:44.946Z,5.85
2023-03-12T01:25:48.052Z,6.03
2023-03-12T01:28:51.331Z,8.65
2023-03-12T01:31:54.598Z,7.75
2023-03-12T01:35:00.590Z,6.43
2023-03-12T01:38:03.675Z,10.07
2023-03-12T01:41:06.657Z,9.13
2023-03-12T01:44:15.382Z,8.25
2023-03-12T01:47:18.261Z,6.55
2023-03-12T01:50:21.747Z,6.55
2023-03-12T01:53:24.954Z,9.10
2023-03-12T01:56:33.159Z,8.43
2023-03-12T01:59:49.054Z,8.05
2023-03-12T02:02:54.084Z,6.45
2023-03-12T02:06:03.114Z,6.20
2023-03-12T02:09:08.151Z,8.80
2023-03-12T02:12:12.884Z,9.18
2023-03-12T02:15:15.866Z,10.90
2023-03-12T02:18:20.496Z,7.47
2023-03-12T02:21:26.665Z,5.60
2023-03-12T02:25:04.770Z,7.90
2023-03-12T02:28:13.186Z,5.78
2023-03-12T02:31:21.660Z,6.47
2023-03-12T02:34:24.894Z,5.60
2023-03-12T02:37:28.292Z,6.50
2023-03-12T02:40:37.317Z,6.45
2023-03-12T02:43:41.739Z,6.00
2023-03-12T02:46:53.741Z,7.95
2023-03-12T02:49:56.985Z,7.85
2023-03-12T02:52:59.822Z,9.38
2023-03-12T02:56:03.220Z,9.55
2023-03-12T02:59:07.346Z,9.18
2023-03-12T03:02:12.879Z,7.93
2023-03-12T03:05:16.074Z,10.32
2023-03-12T03:08:19.469Z,10.15
2023-03-12T03:11:25.636Z,12.02
2023-03-12T03:14:28.616Z,10.38
2023-03-12T03:17:31.916Z,9.30
2023-03-12T03:20:35.311Z,9.57
2023-03-12T03:23:38.504Z,10.30
2023-03-12T03:26:41.498Z,10.18
2023-03-12T03:29:46.639Z,9.98
2023-03-12T03:32:50.373Z,10.68
2023-03-12T03:35:55.876Z,10.52
2023-03-12T03:38:59.083Z,10.43
2023-03-12T03:42:02.166Z,12.95
2023-03-12T03:45:06.277Z,10.73
2023-03-12T03:48:09.470Z,12.25
2023-03-12T03:51:13.894Z,11.38
2023-03-12T03:54:17.291Z,13.60
2023-03-12T03:57:20.381Z,11.93
2023-03-12T04:00:24.092Z,15.52
2023-03-12T04:03:27.449Z,10.75
2023-03-12T04:06:31.081Z,10.38
2023-03-12T04:09:34.272Z,14.48
2023-03-12T04:12:37.494Z,18.27
2023-03-12T04:15:51.042Z,23.42
2023-03-12T04:18:54.610Z,17.15
2023-03-12T04:21:57.792Z,16.10
2023-03-12T04:25:00.886Z,16.42
2023-03-12T04:28:04.177Z,18.80
2023-03-12T04:31:08.502Z,17.17
2023-03-12T04:34:14.405Z,13.88
2023-03-12T04:37:17.674Z,11.48
2023-03-12T04:40:20.535Z,10.45
2023-03-12T04:43:23.633Z,11.45
2023-03-12T04:46:26.862Z,11.15
2023-03-12T04:49:30.630Z,13.25
2023-03-12T04:52:34.439Z,13.02
2023-03-12T04:55:37.425Z,14.13
2023-03-12T04:58:40.720Z,14.57
2023-03-12T05:01:44.120Z,16.50
2023-03-12T05:04:47.614Z,12.70
2023-03-12T05:07:50.611Z,15.40
2023-03-12T05:10:53.802Z,16.75
2023-03-12T05:13:56.684Z,16.38
2023-03-12T05:16:59.874Z,17.52
2023-03-12T05:20:05.527Z,17.20
2023-03-12T05:23:08.732Z,16.90
2023-03-12T05:26:23.683Z,17.65
2023-03-12T05:29:26.981Z,16.40
2023-03-12T05:32:30.200Z,16.25
2023-03-12T05:35:33.388Z,15.07
2023-03-12T05:38:36.870Z,15.25
2023-03-12T05:41:40.471Z,15.55
2023-03-12T05:44:43.457Z,13.85
2023-03-12T05:47:46.449Z,16.55
2023-03-12T05:50:50.038Z,13.35
2023-03-12T05:53:53.143Z,18.33
2023-03-12T05:56:56.629Z,15.00
2023-03-12T05:59:59.722Z,15.80
2023-03-12T06:03:02.841Z,13.13
2023-03-12T06:06:06.005Z,14.80
2023-03-12T06:09:09.392Z,14.68
2023-03-12T06:12:12.287Z,13.00
2023-03-12T06:15:15.372Z,12.43
2023-03-12T06:18:18.562Z,55.20
2023-03-12T06:21:24.427Z,81.65
2023-03-12T06:24:27.610Z,42.25
2023-03-12T06:27:30.596Z,36.67
2023-03-12T06:30:33.786Z,47.35
2023-03-12T06:33:37.393Z,37.72
2023-03-12T06:36:40.477Z,35.00
2023-03-12T06:39:43.776Z,25.88
2023-03-12T06:42:47.068Z,25.15
2023-03-12T06:45:50.054Z,22.75
2023-03-12T06:48:53.145Z,21.92
2023-03-12T06:51:57.364Z,19.95
2023-03-12T06:55:00.334Z,16.80
2023-03-12T06:58:04.571Z,16.52
2023-03-12T07:01:08.003Z,14.77
2023-03-12T07:04:11.260Z,12.80
2023-03-12T07:07:14.151Z,12.55
2023-03-12T07:10:18.272Z,10.63
2023-03-12T07:13:21.769Z,10.02
2023-03-12T07:16:25.016Z,12.52
2023-03-12T07:19:30.361Z,10.15
2023-03-12T07:22:33.911Z,10.70
2023-03-12T07:25:38.745Z,12.30
2023-03-12T07:28:42.154Z,7.97
2023-03-12T07:31:45.075Z,10.20
2023-03-12T07:34:48.113Z,11.57
2023-03-12T07:37:51.225Z,9.27
2023-03-12T07:40:56.377Z,11.13
2023-03-12T07:43:59.664Z,9.15
2023-03-12T07:47:16.471Z,9.27
2023-03-12T07:50:25.594Z,10.25
2023-03-12T07:53:28.866Z,8.15
2023-03-12T07:56:34.349Z,8.77
2023-03-12T07:59:38.435Z,8.88
2023-03-12T08:02:41.494Z,10.10
2023-03-12T08:05:45.564Z,8.50
2023-03-12T08:08:49.197Z,8.43
2023-03-12T08:11:52.898Z,10.52
2023-03-12T08:14:56.031Z,8.35
2023-03-12T08:17:59.944Z,8.40
2023-03-12T08:21:02.929Z,9.23
2023-03-12T08:24:06.237Z,8.30
2023-03-12T08:27:12.492Z,8.48
2023-03-12T08:30:15.888Z,9.80
2023-03-12T08:33:19.485Z,8.60
2023-03-12T08:36:22.738Z,9.65
2023-03-12T08:39:25.668Z,8.93
2023-03-12T08:42:28.967Z,7.60
2023-03-12T08:45:32.214Z,8.30
2023-03-12T08:48:35.250Z,7.65
2023-03-12T08:51:38.346Z,8.90
2023-03-12T08:54:41.643Z,8.48
2023-03-12T08:57:44.835Z,9.93
2023-03-12T09:00:48.230Z,8.93
2023-03-12T09:03:54.400Z,11.93
2023-03-12T09:06:57.590Z,7.45
2023-03-12T09:10:00.591Z,7.35
2023-03-12T09:13:04.914Z,7.43
2023-03-12T09:16:08.901Z,7.05
2023-03-12T09:19:11.686Z,6.45
2023-03-12T09:22:15.401Z,7.75
2023-03-12T09:25:19.121Z,6.20
2023-03-12T09:28:22.714Z,8.90
2023-03-12T09:31:26.517Z,8.30
2023-03-12T09:34:30.020Z,7.07
2023-03-12T09:37:33.103Z,7.25
2023-03-12T09:40:38.861Z,8.05
2023-03-12T09:43:59.662Z,6.90
2023-03-12T09:47:29.906Z,6.55
2023-03-12T09:50:35.446Z,6.78
2023-03-12T09:53:49.096Z,6.10
2023-03-12T09:56:55.656Z,9.95
2023-03-12T09:59:59.060Z,7.90
2023-03-12T10:03:21.432Z,6.53
2023-03-12T10:06:31.127Z,6.28
2023-03-12T10:09:47.031Z,5.50
2023-03-12T10:13:05.282Z,6.60
2023-03-12T10:16:11.281Z,7.15
2023-03-12T10:19:55.599Z,8.07
2023-03-12T10:23:17.327Z,7.03
2023-03-12T10:26:25.782Z,7.28
2023-03-12T10:29:34.981Z,6.22
2023-03-12T10:32:42.551Z,6.20
2023-03-12T10:35:46.243Z,8.23
2023-03-12T10:38:49.788Z,7.05
2023-03-12T10:41:53.594Z,5.68
2023-03-12T10:45:21.261Z,7.03
2023-03-12T10:48:26.399Z,6.72
2023-03-12T10:51:29.495Z,6.80
2023-03-12T10:54:34.118Z,7.35
2023-03-12T10:57:43.253Z,6.13
2023-03-12T11:00:59.453Z,6.95
2023-03-12T11:04:28.816Z,6.75
2023-03-12T11:07:35.737Z,6.18
2023-03-12T11:10:45.293Z,6.00
2023-03-12T11:14:16.746Z,10.55
2023-03-12T11:17:28.744Z,7.13
2023-03-12T11:20:33.381Z,5.13
2023-03-12T11:23:43.525Z,5.47
2023-03-12T11:27:00.229Z,6.47
2023-03-12T11:30:07.823Z,5.05
2023-03-12T11:33:12.889Z,4.72
2023-03-12T11:36:49.039Z,5.03
2023-03-12T11:40:12.312Z,5.85
2023-03-12T11:43:29.244Z,5.78
2023-03-12T11:46:57.784Z,5.65
2023-03-12T11:50:37.563Z,6.80
2023-03-12T11:53:59.502Z,5.82
2023-03-12T11:57:07.432Z,5.53
2023-03-12T12:00:25.140Z,6.80
2023-03-12T12:03:55.778Z,9.93
2023-03-12T12:07:17.195Z,5.53
2023-03-12T12:10:42.413Z,7.20
2023-03-12T12:13:51.032Z,5.93
2023-03-12T12:17:03.232Z,5.10
2023-03-12T12:20:27.324Z,6.00
2023-03-12T12:23:45.155Z,5.30
2023-03-12T12:27:09.649Z,6.72
2023-03-12T12:30:23.189Z,6.88
2023-03-12T12:33:35.392Z,5.55
2023-03-12T12:36:39.604Z,6.55
2023-03-12T12:40:11.271Z,5.13
2023-03-12T12:43:33.636Z,5.45
2023-03-12T12:46:43.875Z,5.72
2023-03-12T12:49:59.866Z,8.63
2023-03-12T12:53:47.708Z,7.45
2023-03-12T12:56:53.770Z,8.38
2023-03-12T13:00:16.311Z,6.93
2023-03-12T13:03:25.548Z,8.60
2023-03-12T13:06:30.590Z,9.35
2023-03-12T13:09:38.403Z,9.70
2023-03-12T13:12:50.802Z,8.13
2023-03-12T13:16:34.156Z,7.65
2023-03-12T13:19:51.897Z,8.15
2023-03-12T13:22:58.653Z,8.02
2023-03-12T13:26:08.707Z,8.52
2023-03-12T13:29:31.469Z,8.55
2023-03-12T13:32:37.562Z,12.10
2023-03-12T13:35:41.534Z,9.93
2023-03-12T13:39:00.305Z,9.10
2023-03-12T13:42:23.863Z,8.07
2023-03-12T13:45:30.041Z,8.60
2023-03-12T13:48:36.402Z,7.28
2023-03-12T13:52:02.357Z,16.35
2023-03-12T13:55:14.333Z,9.13
2023-03-12T13:58:23.984Z,15.45
2023-03-12T14:01:36.565Z,10.48
2023-03-12T14:04:42.909Z,13.07
2023-03-12T14:08:17.283Z,8.65
2023-03-12T14:11:51.093Z,8.75
2023-03-12T14:15:12.938Z,8.25
2023-03-12T14:18:22.053Z,9.15
2023-03-12T14:21:31.994Z,8.90
2023-03-12T14:24:50.550Z,8.48
2023-03-12T14:27:54.276Z,6.68
2023-03-12T14:31:09.488Z,7.82
2023-03-12T14:34:12.739Z,8.23
2023-03-12T14:37:48.074Z,8.35
2023-03-12T14:41:06.018Z,10.15
2023-03-12T14:44:27.340Z,7.30
2023-03-12T14:47:30.525Z,11.40
2023-03-12T14:50:42.331Z,7.63
2023-03-12T14:53:46.235Z,7.00
2023-03-12T14:56:50.463Z,7.75
2023-03-12T14:59:56.726Z,9.43
2023-03-12T15:03:05.950Z,7.38
2023-03-12T15:06:40.480Z,6.55
2023-03-12T15:09:47.262Z,5.70
2023-03-12T15:12:55.248Z,6.65
2023-03-12T15:15:59.083Z,7.07
2023-03-12T15:19:05.049Z,5.22
2023-03-12T15:22:14.065Z,6.78
2023-03-12T15:25:30.563Z,7.25
2023-03-12T15:28:33.962Z,11.68
2023-03-12T15:31:45.888Z,12.43
2023-03-12T15:34:50.086Z,6.35
2023-03-12T15:37:53.986Z,7.15
2023-03-12T15:41:01.891Z,24.33
2023-03-12T15:44:05.812Z,10.93
2023-03-12T15:47:18.225Z,22.00
2023-03-12T15:50:35.850Z,8.25
2023-03-12T15:53:41.982Z,6.35
2023-03-12T15:56:45.522Z,10.55
2023-03-12T16:00:17.275Z,9.05
2023-03-12T16:03:22.620Z,12.43
2023-03-12T16:06:30.221Z,12.30
2023-03-12T16:09:34.332Z,18.50
2023-03-12T16:12:38.749Z,17.48
2023-03-12T16:15:43.073Z,18.98
2023-03-12T16:18:47.083Z,12.77
2023-03-12T16:21:51.106Z,20.15
2023-03-12T16:24:55.003Z,25.23
2023-03-12T16:28:03.729Z,26.13
2023-03-12T16:31:17.202Z,27.20
2023-03-12T16:34:21.483Z,28.30
2023-03-12T16:37:26.635Z,23.77
2023-03-12T16:40:35.332Z,17.98
2023-03-12T16:43:39.045Z,13.23
2023-03-12T16:46:42.643Z,23.65
2023-03-12T16:49:46.659Z,89.50
2023-03-12T16:52:54.665Z,22.42
2023-03-12T16:56:02.986Z,47.35
2023-03-12T16:59:13.235Z,59.28
2023-03-12T17:02:20.419Z,50.88
2023-03-12T17:05:28.033Z,51.58
2023-03-12T17:08:31.895Z,19.33
2023-03-12T17:11:38.289Z,9.82
2023-03-12T17:14:43.129Z,9.93
2023-03-12T17:17:47.144Z,18.25
2023-03-12T17:20:52.699Z,8.48
2023-03-12T17:23:56.904Z,7.43
2023-03-12T17:27:01.640Z,8.70
2023-03-12T17:30:08.006Z,11.57
2023-03-12T17:33:18.059Z,8.98
2023-03-12T17:36:22.283Z,7.88
2023-03-12T17:39:27.004Z,9.02
2023-03-12T17:42:32.652Z,12.73
2023-03-12T17:45:39.873Z,19.67
2023-03-12T17:48:43.955Z,10.23
2023-03-12T17:51:49.817Z,9.95
2023-03-12T17:54:54.132Z,10.38
2023-03-12T17:57:58.448Z,10.30
2023-03-12T18:01:02.263Z,13.52
2023-03-12T18:04:06.273Z,11.15
2023-03-12T18:07:10.693Z,10.93
2023-03-12T18:10:14.827Z,9.55
2023-03-12T18:13:19.124Z,11.65
2023-03-12T18:16:22.751Z,12.45
2023-03-12T18:19:27.553Z,13.00
2023-03-12T18:22:31.361Z,16.30
2023-03-12T18:25:35.175Z,15.63
2023-03-12T18:28:39.292Z,13.30
2023-03-12T18:31:44.493Z,15.05
2023-03-12T18:34:50.177Z,14.50
2023-03-12T18:37:54.442Z,16.55
2023-03-12T18:41:13.255Z,14.48
2023-03-12T18:44:18.295Z,14.90
2023-03-12T18:47:22.512Z,16.75
2023-03-12T18:50:26.420Z,21.70
2023-03-12T18:53:31.664Z,25.23
2023-03-12T18:56:40.179Z,30.58
2023-03-12T18:59:46.957Z,26.90
2023-03-12T19:02:55.555Z,21.13
2023-03-12T19:06:05.005Z,23.52
2023-03-12T19:09:10.565Z,22.90
2023-03-12T19:12:15.499Z,17.73
2023-03-12T19:15:19.825Z,16.05
2023-03-12T19:18:23.627Z,16.75
2023-03-12T19:21:31.217Z,15.35
2023-03-12T19:24:35.030Z,14.95
2023-03-12T19:27:39.364Z,17.23
2023-03-12T19:30:46.427Z,26.05
2023-03-12T19:33:50.443Z,32.45
2023-03-12T19:36:56.005Z,25.25
2023-03-12T19:40:00.010Z,17.35
2023-03-12T19:43:04.321Z,15.98
2023-03-12T19:46:08.840Z,23.35
2023-03-12T19:49:17.771Z,17.90
2023-03-12T19:52:21.686Z,26.05
2023-03-12T19:55:26.102Z,13.52
2023-03-12T19:58:31.043Z,16.70
2023-03-12T20:01:35.866Z,14.63
2023-03-12T20:04:40.181Z,13.25
2023-03-12T20:07:45.938Z,14.32
2023-03-12T20:10:50.669Z,14.32
2023-03-12T20:13:55.909Z,16.27
2023-03-12T20:16:59.589Z,17.08
2023-03-12T20:20:06.185Z,15.20
2023-03-12T20:23:10.953Z,14.32
2023-03-12T20:26:15.634Z,14.25
2023-03-12T20:29:21.090Z,14.02
2023-03-12T20:32:26.559Z,15.20
2023-03-12T20:35:31.079Z,17.92
2023-03-12T20:38:34.910Z,20.85
2023-03-12T20:41:39.175Z,21.00
2023-03-12T20:44:43.192Z,16.75
2023-03-12T20:47:46.695Z,16.23
2023-03-12T20:50:52.138Z,18.65
2023-03-12T20:53:56.459Z,15.43
2023-03-12T20:57:00.473Z,12.50
2023-03-12T21:00:05.300Z,12.85
2023-03-12T21:03:15.561Z,14.63
2023-03-12T21:06:19.168Z,12.02
2023-03-12T21:09:24.198Z,14.57
2023-03-12T21:12:28.734Z,16.25
2023-03-12T21:15:32.539Z,17.02
2023-03-12T21:18:36.851Z,16.55
2023-03-12T21:21:40.351Z,19.48
2023-03-12T21:24:43.746Z,23.30
2023-03-12T21:27:50.947Z,23.40
2023-03-12T21:30:56.115Z,20.85
2023-03-12T21:33:59.978Z,21.20
2023-03-12T21:37:03.174Z,16.60
2023-03-12T21:40:08.521Z,18.60
2023-03-12T21:43:12.017Z,23.30
2023-03-12T21:46:17.928Z,28.42
2023-03-12T21:49:21.398Z,39.78
2023-03-12T21:52:24.566Z,55.17
2023-03-12T21:55:27.451Z,45.92
2023-03-12T21:58:31.769Z,44.35
2023-03-12T22:01:34.995Z,51.20
2023-03-12T22:04:38.226Z,58.58
2023-03-12T22:07:41.346Z,47.58
2023-03-12T22:10:45.299Z,50.88
2023-03-12T22:13:49.165Z,42.00
2023-03-12T22:16:52.256Z,25.23
2023-03-12T22:19:55.347Z,31.02
2023-03-12T22:22:58.430Z,31.77
2023-03-12T22:26:03.236Z,29.38
2023-03-12T22:29:08.314Z,28.13
2023-03-12T22:32:10.966Z,25.30
2023-03-12T22:35:14.069Z,20.05
2023-03-12T22:38:16.956Z,22.38
2023-03-12T22:41:26.903Z,23.60
2023-03-12T22:44:30.097Z,22.30
2023-03-12T22:47:33.199Z,21.95
2023-03-12T22:50:37.196Z,21.13
2023-03-12T22:53:40.289Z,22.13
2023-03-12T22:56:43.375Z,22.92
2023-03-12T22:59:48.310Z,22.60
2023-03-12T23:02:51.914Z,19.27
2023-03-12T23:05:55.110Z,21.25
2023-03-12T23:08:58.933Z,18.10
2023-03-12T23:12:02.309Z,18.65
2023-03-12T23:15:05.808Z,18.45
2023-03-12T23:18:08.901Z,18.10
2023-03-12T23:21:15.672Z,19.70
2023-03-12T23:24:18.673Z,18.98
2023-03-12T23:27:21.963Z,19.60
2023-03-12T23:30:25.254Z,17.42
2023-03-12T23:33:29.882Z,18.30
2023-03-12T23:36:32.982Z,19.35
2023-03-12T23:39:51.738Z,18.52
2023-03-12T23:42:57.276Z,19.88
2023-03-12T23:46:02.984Z,17.50
2023-03-12T23:49:07.052Z,19.70
2023-03-12T23:52:10.235Z,19.73
2023-03-12T23:55:13.935Z,23.05
2023-03-12T23:58:17.127Z,17.52
